メインページ
METAR-TAF:

METAR-TAF

空港 :

グロトン / ニューロンドン, コネチカット州, アメリカ合衆国

緯度: 41-19-39N, 経度: 072-02-58W, 海抜: 3m

現時点の気象観測

当レポートは52分前の09:56(UTC)に作成
南西の風 5kt
気温 22°C
湿度 94%
気圧 1014 hPa
視程: 14.5km
晴天

METAR: KGON 050956Z AUTO 22005KT 9SM CLR 22/21 A2995 RMK AO2 SLP141 T02170211

時間: 06:48 (10:48 UTC)

予報

当レポートは2時間5分前の08:43(UTC)に作成
予報は05日の 09時(UTC)から 06日の 06時(UTC)まで有効
南西の風 8kt
視程: 10km
高度4000ftの雲は散在している
05日の 1700時(UTC)から
南/南西の風 9kt、最大15ktの突風を伴う
視程: 10km
高度6000ftの雲はほとんどない
05日の 2300時(UTC)から
南/南西の風 7kt
視程: 10km
高度6000ftの雲はほとんどない
06日の 0500時(UTC)から
西の風 4kt
視程: 10km
高度6000ftの雲はほとんどない

TAF: KGON 050843Z 0509/0606 23008KT P6SM SCT040 FM051700 21009G15KT P6SM FEW060 FM052300 21007KT P6SM FEW060 FM060500 28004KT P6SM FEW060

4,000以上の空港の気象観測と天気予報(METAR報とTAF報)

利用可能な観測所は地図上に黄色い丸と赤い丸で示す。

丸の上にカーソルを重ねると観測所名を参照できる。

次にクリックすると気象観測と天気予報を参照できる。

マップの切り替え:黒色「×」印の緑ボタンをクリックして拡大、「-」印の緑ボタンをクリックして縮小、緑色の三角印をクリックして隣りの地図に切り替え


METAR-TAF: